sensor_id;sensor_type;location;lat;lon;timestamp;temperature;humidity
51811;DHT22;52468;40.116;18.296;2022-10-29T00:01:01;18.10;87.30
51811;DHT22;52468;40.116;18.296;2022-10-29T00:03:28;18.10;87.20
51811;DHT22;52468;40.116;18.296;2022-10-29T00:06:04;18.10;87.10
51811;DHT22;52468;40.116;18.296;2022-10-29T00:08:34;18.10;87.10
51811;DHT22;52468;40.116;18.296;2022-10-29T00:11:10;18.00;87.10
51811;DHT22;52468;40.116;18.296;2022-10-29T00:13:38;18.00;86.90
51811;DHT22;52468;40.116;18.296;2022-10-29T00:16:12;18.00;87.00
51811;DHT22;52468;40.116;18.296;2022-10-29T00:18:41;18.00;87.00
51811;DHT22;52468;40.116;18.296;2022-10-29T00:21:17;18.00;87.10
51811;DHT22;52468;40.116;18.296;2022-10-29T00:23:46;18.00;87.10
51811;DHT22;52468;40.116;18.296;2022-10-29T00:26:15;18.00;87.10
51811;DHT22;52468;40.116;18.296;2022-10-29T00:28:43;18.00;87.00
51811;DHT22;52468;40.116;18.296;2022-10-29T00:31:14;17.90;87.10
51811;DHT22;52468;40.116;18.296;2022-10-29T00:33:42;17.90;87.00
51811;DHT22;52468;40.116;18.296;2022-10-29T00:36:18;17.90;87.10
51811;DHT22;52468;40.116;18.296;2022-10-29T00:38:49;17.90;86.90
51811;DHT22;52468;40.116;18.296;2022-10-29T00:41:19;17.90;86.90
51811;DHT22;52468;40.116;18.296;2022-10-29T00:43:50;17.90;86.90
51811;DHT22;52468;40.116;18.296;2022-10-29T00:46:31;17.90;86.60
51811;DHT22;52468;40.116;18.296;2022-10-29T00:49:01;17.80;86.50
51811;DHT22;52468;40.116;18.296;2022-10-29T00:51:30;17.80;86.40
51811;DHT22;52468;40.116;18.296;2022-10-29T00:54:05;17.70;86.40
51811;DHT22;52468;40.116;18.296;2022-10-29T00:56:38;17.70;86.20
51811;DHT22;52468;40.116;18.296;2022-10-29T00:59:09;17.70;86.70
51811;DHT22;52468;40.116;18.296;2022-10-29T01:01:38;17.70;86.60
51811;DHT22;52468;40.116;18.296;2022-10-29T01:04:06;17.70;86.50
51811;DHT22;52468;40.116;18.296;2022-10-29T01:06:34;17.70;86.50
51811;DHT22;52468;40.116;18.296;2022-10-29T01:09:02;17.70;86.70
51811;DHT22;52468;40.116;18.296;2022-10-29T01:18:00;17.70;86.60
51811;DHT22;52468;40.116;18.296;2022-10-29T01:31:50;17.80;87.20
51811;DHT22;52468;40.116;18.296;2022-10-29T01:37:28;18.00;87.20
51811;DHT22;52468;40.116;18.296;2022-10-29T01:42:45;18.00;87.20
51811;DHT22;52468;40.116;18.296;2022-10-29T01:45:26;18.00;87.10
51811;DHT22;52468;40.116;18.296;2022-10-29T01:48:00;18.00;87.40
51811;DHT22;52468;40.116;18.296;2022-10-29T01:50:28;18.00;87.40
51811;DHT22;52468;40.116;18.296;2022-10-29T01:52:57;18.00;87.50
51811;DHT22;52468;40.116;18.296;2022-10-29T01:55:31;18.00;87.40
51811;DHT22;52468;40.116;18.296;2022-10-29T01:58:03;18.10;87.30
51811;DHT22;52468;40.116;18.296;2022-10-29T02:00:45;18.10;87.20
51811;DHT22;52468;40.116;18.296;2022-10-29T02:05:59;18.10;87.20
51811;DHT22;52468;40.116;18.296;2022-10-29T02:11:26;18.00;87.20
51811;DHT22;52468;40.116;18.296;2022-10-29T02:14:02;18.00;87.30
51811;DHT22;52468;40.116;18.296;2022-10-29T02:16:32;18.00;87.00
51811;DHT22;52468;40.116;18.296;2022-10-29T02:19:00;18.00;87.50
51811;DHT22;52468;40.116;18.296;2022-10-29T02:21:28;18.00;87.40
51811;DHT22;52468;40.116;18.296;2022-10-29T02:23:55;18.00;87.20
51811;DHT22;52468;40.116;18.296;2022-10-29T02:26:23;18.00;87.40
51811;DHT22;52468;40.116;18.296;2022-10-29T02:28:51;18.00;87.30
51811;DHT22;52468;40.116;18.296;2022-10-29T02:31:19;18.00;87.30
51811;DHT22;52468;40.116;18.296;2022-10-29T02:33:47;18.00;87.40
51811;DHT22;52468;40.116;18.296;2022-10-29T02:36:15;18.00;87.20
51811;DHT22;52468;40.116;18.296;2022-10-29T02:38:42;18.00;87.20
51811;DHT22;52468;40.116;18.296;2022-10-29T02:41:10;18.00;87.30
51811;DHT22;52468;40.116;18.296;2022-10-29T02:43:38;18.00;87.20
51811;DHT22;52468;40.116;18.296;2022-10-29T02:46:24;18.00;87.20
51811;DHT22;52468;40.116;18.296;2022-10-29T02:48:52;18.00;87.20
51811;DHT22;52468;40.116;18.296;2022-10-29T02:51:20;17.90;87.30
51811;DHT22;52468;40.116;18.296;2022-10-29T02:53:47;17.90;87.30
51811;DHT22;52468;40.116;18.296;2022-10-29T02:56:15;17.90;87.50
51811;DHT22;52468;40.116;18.296;2022-10-29T02:58:43;17.90;87.60
51811;DHT22;52468;40.116;18.296;2022-10-29T03:01:11;18.00;87.40
51811;DHT22;52468;40.116;18.296;2022-10-29T03:03:39;17.90;87.60
51811;DHT22;52468;40.116;18.296;2022-10-29T03:06:17;18.00;87.60
51811;DHT22;52468;40.116;18.296;2022-10-29T03:08:46;18.00;87.40
51811;DHT22;52468;40.116;18.296;2022-10-29T03:11:14;18.00;87.50
51811;DHT22;52468;40.116;18.296;2022-10-29T03:13:42;18.00;87.40
51811;DHT22;52468;40.116;18.296;2022-10-29T03:16:10;18.00;87.40
51811;DHT22;52468;40.116;18.296;2022-10-29T03:18:38;18.00;87.50
51811;DHT22;52468;40.116;18.296;2022-10-29T03:21:05;18.00;87.50
51811;DHT22;52468;40.116;18.296;2022-10-29T03:23:33;18.00;87.30
51811;DHT22;52468;40.116;18.296;2022-10-29T03:26:01;18.00;87.40
51811;DHT22;52468;40.116;18.296;2022-10-29T03:28:29;18.00;87.50
51811;DHT22;52468;40.116;18.296;2022-10-29T03:30:57;18.00;87.50
51811;DHT22;52468;40.116;18.296;2022-10-29T03:33:25;18.00;87.50
51811;DHT22;52468;40.116;18.296;2022-10-29T03:36:00;17.90;87.60
51811;DHT22;52468;40.116;18.296;2022-10-29T03:38:29;17.90;87.50
51811;DHT22;52468;40.116;18.296;2022-10-29T03:40:57;17.90;87.70
51811;DHT22;52468;40.116;18.296;2022-10-29T03:43:25;18.00;87.80
51811;DHT22;52468;40.116;18.296;2022-10-29T03:45:55;18.00;87.70
51811;DHT22;52468;40.116;18.296;2022-10-29T03:48:24;17.90;87.80
51811;DHT22;52468;40.116;18.296;2022-10-29T03:53:24;18.00;88.00
51811;DHT22;52468;40.116;18.296;2022-10-29T03:55:53;17.90;88.10
51811;DHT22;52468;40.116;18.296;2022-10-29T03:58:21;18.00;87.90
51811;DHT22;52468;40.116;18.296;2022-10-29T04:00:57;18.00;87.90
51811;DHT22;52468;40.116;18.296;2022-10-29T04:03:27;18.00;88.10
51811;DHT22;52468;40.116;18.296;2022-10-29T04:05:55;18.00;88.10
51811;DHT22;52468;40.116;18.296;2022-10-29T04:08:23;18.00;88.30
51811;DHT22;52468;40.116;18.296;2022-10-29T04:10:52;18.00;88.10
51811;DHT22;52468;40.116;18.296;2022-10-29T04:13:20;18.00;88.10
51811;DHT22;52468;40.116;18.296;2022-10-29T04:15:52;18.00;88.10
51811;DHT22;52468;40.116;18.296;2022-10-29T04:18:22;18.00;88.00
51811;DHT22;52468;40.116;18.296;2022-10-29T04:20:50;18.10;87.90
51811;DHT22;52468;40.116;18.296;2022-10-29T04:23:40;18.10;87.80
51811;DHT22;52468;40.116;18.296;2022-10-29T04:26:28;18.00;87.80
51811;DHT22;52468;40.116;18.296;2022-10-29T04:29:15;18.00;88.00
51811;DHT22;52468;40.116;18.296;2022-10-29T04:31:43;18.00;87.90
51811;DHT22;52468;40.116;18.296;2022-10-29T04:34:11;18.00;87.80
51811;DHT22;52468;40.116;18.296;2022-10-29T04:36:39;18.00;87.90
51811;DHT22;52468;40.116;18.296;2022-10-29T04:39:07;18.00;88.10
51811;DHT22;52468;40.116;18.296;2022-10-29T04:41:35;18.00;88.20
51811;DHT22;52468;40.116;18.296;2022-10-29T04:44:03;18.00;88.20
51811;DHT22;52468;40.116;18.296;2022-10-29T04:46:31;18.00;88.10
51811;DHT22;52468;40.116;18.296;2022-10-29T04:48:59;18.00;87.90
51811;DHT22;52468;40.116;18.296;2022-10-29T04:51:27;18.00;87.90
51811;DHT22;52468;40.116;18.296;2022-10-29T04:53:54;18.00;88.00
51811;DHT22;52468;40.116;18.296;2022-10-29T04:56:22;18.00;87.90
51811;DHT22;52468;40.116;18.296;2022-10-29T04:58:53;18.00;88.00
51811;DHT22;52468;40.116;18.296;2022-10-29T05:01:21;18.00;87.80
51811;DHT22;52468;40.116;18.296;2022-10-29T05:03:49;18.00;87.80
51811;DHT22;52468;40.116;18.296;2022-10-29T05:06:17;18.00;87.90
51811;DHT22;52468;40.116;18.296;2022-10-29T05:08:45;18.00;88.00
51811;DHT22;52468;40.116;18.296;2022-10-29T05:11:13;18.00;87.90
51811;DHT22;52468;40.116;18.296;2022-10-29T05:13:41;18.00;87.80
51811;DHT22;52468;40.116;18.296;2022-10-29T05:16:10;18.10;87.80
51811;DHT22;52468;40.116;18.296;2022-10-29T05:18:38;18.10;87.60
51811;DHT22;52468;40.116;18.296;2022-10-29T05:21:06;18.10;87.70
51811;DHT22;52468;40.116;18.296;2022-10-29T05:23:34;18.10;87.80
51811;DHT22;52468;40.116;18.296;2022-10-29T05:26:01;18.10;87.70
51811;DHT22;52468;40.116;18.296;2022-10-29T05:28:29;18.20;87.70
51811;DHT22;52468;40.116;18.296;2022-10-29T05:30:59;18.20;87.60
51811;DHT22;52468;40.116;18.296;2022-10-29T05:33:29;18.30;87.70
51811;DHT22;52468;40.116;18.296;2022-10-29T05:35:58;18.30;87.70
51811;DHT22;52468;40.116;18.296;2022-10-29T05:38:27;18.30;87.60
51811;DHT22;52468;40.116;18.296;2022-10-29T05:40:57;18.30;87.60
51811;DHT22;52468;40.116;18.296;2022-10-29T05:43:25;18.40;87.60
51811;DHT22;52468;40.116;18.296;2022-10-29T05:45:53;18.50;87.40
51811;DHT22;52468;40.116;18.296;2022-10-29T05:48:21;18.60;87.30
51811;DHT22;52468;40.116;18.296;2022-10-29T05:50:49;18.60;87.20
51811;DHT22;52468;40.116;18.296;2022-10-29T05:53:17;18.80;87.20
51811;DHT22;52468;40.116;18.296;2022-10-29T05:55:44;18.80;87.00
51811;DHT22;52468;40.116;18.296;2022-10-29T05:58:13;18.80;86.80
51811;DHT22;52468;40.116;18.296;2022-10-29T06:00:42;18.90;86.70
51811;DHT22;52468;40.116;18.296;2022-10-29T06:03:19;19.00;86.50
51811;DHT22;52468;40.116;18.296;2022-10-29T06:05:48;19.00;86.90
51811;DHT22;52468;40.116;18.296;2022-10-29T06:08:16;19.10;86.40
51811;DHT22;52468;40.116;18.296;2022-10-29T06:10:44;19.20;86.10
51811;DHT22;52468;40.116;18.296;2022-10-29T06:13:15;19.30;86.00
51811;DHT22;52468;40.116;18.296;2022-10-29T06:15:44;19.40;86.10
51811;DHT22;52468;40.116;18.296;2022-10-29T06:18:12;19.40;86.10
51811;DHT22;52468;40.116;18.296;2022-10-29T06:20:40;19.50;86.10
51811;DHT22;52468;40.116;18.296;2022-10-29T06:23:10;19.60;85.80
51811;DHT22;52468;40.116;18.296;2022-10-29T06:25:38;19.70;85.70
51811;DHT22;52468;40.116;18.296;2022-10-29T06:28:08;19.70;85.30
51811;DHT22;52468;40.116;18.296;2022-10-29T06:30:38;19.80;85.10
51811;DHT22;52468;40.116;18.296;2022-10-29T06:33:06;19.80;85.10
51811;DHT22;52468;40.116;18.296;2022-10-29T06:35:34;19.90;85.20
51811;DHT22;52468;40.116;18.296;2022-10-29T06:38:06;20.00;84.50
51811;DHT22;52468;40.116;18.296;2022-10-29T06:40:35;20.20;84.70
51811;DHT22;52468;40.116;18.296;2022-10-29T06:43:05;20.40;84.40
51811;DHT22;52468;40.116;18.296;2022-10-29T06:45:34;20.50;84.00
51811;DHT22;52468;40.116;18.296;2022-10-29T06:48:02;20.60;83.20
51811;DHT22;52468;40.116;18.296;2022-10-29T06:50:32;20.60;83.50
51811;DHT22;52468;40.116;18.296;2022-10-29T06:53:01;20.70;83.00
51811;DHT22;52468;40.116;18.296;2022-10-29T06:55:32;20.80;83.10
51811;DHT22;52468;40.116;18.296;2022-10-29T06:58:02;20.80;82.10
51811;DHT22;52468;40.116;18.296;2022-10-29T07:00:32;20.80;82.00
51811;DHT22;52468;40.116;18.296;2022-10-29T07:03:00;21.00;82.60
51811;DHT22;52468;40.116;18.296;2022-10-29T07:05:28;21.00;82.10
51811;DHT22;52468;40.116;18.296;2022-10-29T07:07:57;21.00;81.90
51811;DHT22;52468;40.116;18.296;2022-10-29T07:10:28;21.10;81.50
51811;DHT22;52468;40.116;18.296;2022-10-29T07:12:57;21.00;81.30
51811;DHT22;52468;40.116;18.296;2022-10-29T07:15:25;21.10;82.30
51811;DHT22;52468;40.116;18.296;2022-10-29T07:18:04;21.10;81.70
51811;DHT22;52468;40.116;18.296;2022-10-29T07:20:36;21.20;80.60
51811;DHT22;52468;40.116;18.296;2022-10-29T07:23:04;21.30;80.40
51811;DHT22;52468;40.116;18.296;2022-10-29T07:25:33;21.30;81.40
51811;DHT22;52468;40.116;18.296;2022-10-29T07:30:39;21.30;80.30
51811;DHT22;52468;40.116;18.296;2022-10-29T07:33:07;21.30;80.50
51811;DHT22;52468;40.116;18.296;2022-10-29T07:35:36;21.40;79.70
51811;DHT22;52468;40.116;18.296;2022-10-29T07:38:05;21.40;79.40
51811;DHT22;52468;40.116;18.296;2022-10-29T07:40:46;21.40;79.30
51811;DHT22;52468;40.116;18.296;2022-10-29T07:43:14;21.50;79.40
51811;DHT22;52468;40.116;18.296;2022-10-29T07:45:47;21.60;79.30
51811;DHT22;52468;40.116;18.296;2022-10-29T07:48:19;21.60;78.10
51811;DHT22;52468;40.116;18.296;2022-10-29T07:50:48;21.80;77.30
51811;DHT22;52468;40.116;18.296;2022-10-29T07:53:15;21.90;76.70
51811;DHT22;52468;40.116;18.296;2022-10-29T07:55:43;22.00;77.30
51811;DHT22;52468;40.116;18.296;2022-10-29T07:58:12;22.00;77.30
51811;DHT22;52468;40.116;18.296;2022-10-29T08:00:40;22.00;76.00
51811;DHT22;52468;40.116;18.296;2022-10-29T08:03:09;22.10;75.10
51811;DHT22;52468;40.116;18.296;2022-10-29T08:05:38;22.10;75.10
51811;DHT22;52468;40.116;18.296;2022-10-29T08:08:08;22.00;74.50
51811;DHT22;52468;40.116;18.296;2022-10-29T08:10:36;22.00;73.60
51811;DHT22;52468;40.116;18.296;2022-10-29T08:13:05;21.80;73.90
51811;DHT22;52468;40.116;18.296;2022-10-29T08:15:33;21.90;74.00
51811;DHT22;52468;40.116;18.296;2022-10-29T08:18:01;22.00;73.10
51811;DHT22;52468;40.116;18.296;2022-10-29T08:20:31;22.20;72.30
51811;DHT22;52468;40.116;18.296;2022-10-29T08:22:59;22.30;71.30
51811;DHT22;52468;40.116;18.296;2022-10-29T08:25:28;22.50;70.60
51811;DHT22;52468;40.116;18.296;2022-10-29T08:28:03;22.60;69.00
51811;DHT22;52468;40.116;18.296;2022-10-29T08:30:31;22.90;67.80
51811;DHT22;52468;40.116;18.296;2022-10-29T08:32:59;22.90;66.80
51811;DHT22;52468;40.116;18.296;2022-10-29T08:35:28;23.00;65.00
51811;DHT22;52468;40.116;18.296;2022-10-29T08:37:56;23.10;64.00
51811;DHT22;52468;40.116;18.296;2022-10-29T08:45:53;23.00;63.50
51811;DHT22;52468;40.116;18.296;2022-10-29T08:48:34;23.20;63.20
51811;DHT22;52468;40.116;18.296;2022-10-29T08:51:17;23.40;62.10
51811;DHT22;52468;40.116;18.296;2022-10-29T08:53:49;23.50;61.40
51811;DHT22;52468;40.116;18.296;2022-10-29T08:56:35;23.50;61.20
51811;DHT22;52468;40.116;18.296;2022-10-29T08:59:14;23.40;61.80
51811;DHT22;52468;40.116;18.296;2022-10-29T09:01:43;23.50;61.80
51811;DHT22;52468;40.116;18.296;2022-10-29T09:04:32;23.60;59.70
51811;DHT22;52468;40.116;18.296;2022-10-29T09:15:23;23.90;60.50
51811;DHT22;52468;40.116;18.296;2022-10-29T09:20:47;24.20;60.30
51811;DHT22;52468;40.116;18.296;2022-10-29T09:23:24;24.30;59.80
51811;DHT22;52468;40.116;18.296;2022-10-29T09:26:03;24.10;60.00
51811;DHT22;52468;40.116;18.296;2022-10-29T09:33:54;23.90;56.20
51811;DHT22;52468;40.116;18.296;2022-10-29T09:36:25;24.00;56.10
51811;DHT22;52468;40.116;18.296;2022-10-29T09:39:00;24.00;56.80
51811;DHT22;52468;40.116;18.296;2022-10-29T09:41:33;24.10;57.10
51811;DHT22;52468;40.116;18.296;2022-10-29T09:52:34;24.30;55.30
51811;DHT22;52468;40.116;18.296;2022-10-29T09:55:05;24.40;55.40
51811;DHT22;52468;40.116;18.296;2022-10-29T09:57:35;24.30;54.80
51811;DHT22;52468;40.116;18.296;2022-10-29T10:00:32;24.30;55.70
51811;DHT22;52468;40.116;18.296;2022-10-29T10:03:11;24.40;55.00
51811;DHT22;52468;40.116;18.296;2022-10-29T10:06:01;24.40;53.60
51811;DHT22;52468;40.116;18.296;2022-10-29T10:08:30;24.30;54.90
51811;DHT22;52468;40.116;18.296;2022-10-29T10:11:00;24.40;55.50
51811;DHT22;52468;40.116;18.296;2022-10-29T10:13:33;24.30;55.40
51811;DHT22;52468;40.116;18.296;2022-10-29T10:16:04;24.20;55.20
51811;DHT22;52468;40.116;18.296;2022-10-29T10:21:05;24.50;53.60
51811;DHT22;52468;40.116;18.296;2022-10-29T10:26:33;24.80;53.30
51811;DHT22;52468;40.116;18.296;2022-10-29T10:29:18;24.80;52.70
51811;DHT22;52468;40.116;18.296;2022-10-29T10:31:48;24.80;52.60
51811;DHT22;52468;40.116;18.296;2022-10-29T10:34:20;24.80;52.40
51811;DHT22;52468;40.116;18.296;2022-10-29T10:36:52;24.90;51.90
51811;DHT22;52468;40.116;18.296;2022-10-29T10:39:41;24.60;49.40
51811;DHT22;52468;40.116;18.296;2022-10-29T10:42:21;24.70;49.50
51811;DHT22;52468;40.116;18.296;2022-10-29T10:44:56;24.90;50.10
51811;DHT22;52468;40.116;18.296;2022-10-29T10:47:28;25.00;50.10
51811;DHT22;52468;40.116;18.296;2022-10-29T10:50:24;25.00;49.90
51811;DHT22;52468;40.116;18.296;2022-10-29T10:52:53;25.00;49.20
51811;DHT22;52468;40.116;18.296;2022-10-29T10:55:35;25.10;49.50
51811;DHT22;52468;40.116;18.296;2022-10-29T11:01:23;25.20;49.30
51811;DHT22;52468;40.116;18.296;2022-10-29T11:04:00;25.10;49.30
51811;DHT22;52468;40.116;18.296;2022-10-29T11:06:35;25.00;47.80
51811;DHT22;52468;40.116;18.296;2022-10-29T11:09:41;25.00;48.60
51811;DHT22;52468;40.116;18.296;2022-10-29T11:12:23;25.10;49.00
51811;DHT22;52468;40.116;18.296;2022-10-29T11:14:59;25.00;49.20
51811;DHT22;52468;40.116;18.296;2022-10-29T11:17:38;25.00;47.40
51811;DHT22;52468;40.116;18.296;2022-10-29T11:20:36;24.80;45.00
51811;DHT22;52468;40.116;18.296;2022-10-29T11:25:53;24.90;46.40
51811;DHT22;52468;40.116;18.296;2022-10-29T11:28:36;25.00;46.70
51811;DHT22;52468;40.116;18.296;2022-10-29T11:37:01;25.00;44.50
51811;DHT22;52468;40.116;18.296;2022-10-29T11:42:24;25.00;45.60
51811;DHT22;52468;40.116;18.296;2022-10-29T11:44:52;25.10;45.00
51811;DHT22;52468;40.116;18.296;2022-10-29T11:53:04;25.10;43.10
51811;DHT22;52468;40.116;18.296;2022-10-29T12:12:24;25.10;47.00
51811;DHT22;52468;40.116;18.296;2022-10-29T12:15:08;24.90;48.00
51811;DHT22;52468;40.116;18.296;2022-10-29T12:20:40;24.60;50.80
51811;DHT22;52468;40.116;18.296;2022-10-29T12:29:21;24.20;50.80
51811;DHT22;52468;40.116;18.296;2022-10-29T12:32:07;24.10;50.30
51811;DHT22;52468;40.116;18.296;2022-10-29T12:34:57;24.30;50.80
51811;DHT22;52468;40.116;18.296;2022-10-29T12:40:21;24.40;49.90
51811;DHT22;52468;40.116;18.296;2022-10-29T12:42:51;24.40;50.30
51811;DHT22;52468;40.116;18.296;2022-10-29T12:51:57;24.20;52.50
51811;DHT22;52468;40.116;18.296;2022-10-29T12:54:38;24.10;52.50
51811;DHT22;52468;40.116;18.296;2022-10-29T12:59:42;24.20;54.00
51811;DHT22;52468;40.116;18.296;2022-10-29T13:07:34;24.00;55.60
51811;DHT22;52468;40.116;18.296;2022-10-29T13:13:59;24.30;54.10
51811;DHT22;52468;40.116;18.296;2022-10-29T13:15:57;24.30;55.00
51811;DHT22;52468;40.116;18.296;2022-10-29T13:24:44;24.00;57.00
51811;DHT22;52468;40.116;18.296;2022-10-29T13:29:45;24.00;57.50
51811;DHT22;52468;40.116;18.296;2022-10-29T13:32:30;24.10;57.20
51811;DHT22;52468;40.116;18.296;2022-10-29T13:35:00;24.00;56.60
51811;DHT22;52468;40.116;18.296;2022-10-29T13:37:49;24.00;57.80
51811;DHT22;52468;40.116;18.296;2022-10-29T13:43:29;23.80;57.90
51811;DHT22;52468;40.116;18.296;2022-10-29T13:48:35;23.70;57.00
51811;DHT22;52468;40.116;18.296;2022-10-29T13:51:06;23.70;57.10
51811;DHT22;52468;40.116;18.296;2022-10-29T13:53:45;23.50;58.20
51811;DHT22;52468;40.116;18.296;2022-10-29T13:56:41;23.50;58.90
51811;DHT22;52468;40.116;18.296;2022-10-29T13:59:42;23.40;58.40
51811;DHT22;52468;40.116;18.296;2022-10-29T14:02:28;23.40;57.50
51811;DHT22;52468;40.116;18.296;2022-10-29T14:15:37;23.20;58.80
51811;DHT22;52468;40.116;18.296;2022-10-29T14:18:26;23.00;58.70
51811;DHT22;52468;40.116;18.296;2022-10-29T14:20:55;23.00;59.20
51811;DHT22;52468;40.116;18.296;2022-10-29T14:23:24;22.80;59.60
51811;DHT22;52468;40.116;18.296;2022-10-29T14:25:54;22.60;60.20
51811;DHT22;52468;40.116;18.296;2022-10-29T14:31:12;22.50;60.00
51811;DHT22;52468;40.116;18.296;2022-10-29T14:33:45;22.50;59.90
51811;DHT22;52468;40.116;18.296;2022-10-29T14:38:55;22.50;60.30
51811;DHT22;52468;40.116;18.296;2022-10-29T14:41:25;22.30;60.80
51811;DHT22;52468;40.116;18.296;2022-10-29T14:44:05;22.30;61.20
51811;DHT22;52468;40.116;18.296;2022-10-29T14:46:35;22.20;61.10
51811;DHT22;52468;40.116;18.296;2022-10-29T14:49:21;22.00;61.40
51811;DHT22;52468;40.116;18.296;2022-10-29T14:51:51;22.10;60.90
51811;DHT22;52468;40.116;18.296;2022-10-29T14:54:23;22.00;61.30
51811;DHT22;52468;40.116;18.296;2022-10-29T14:57:00;22.00;61.30
51811;DHT22;52468;40.116;18.296;2022-10-29T14:59:30;22.00;61.60
51811;DHT22;52468;40.116;18.296;2022-10-29T15:02:00;21.70;62.50
51811;DHT22;52468;40.116;18.296;2022-10-29T15:04:48;21.70;63.20
51811;DHT22;52468;40.116;18.296;2022-10-29T15:10:01;21.50;65.00
51811;DHT22;52468;40.116;18.296;2022-10-29T15:12:37;21.30;65.30
51811;DHT22;52468;40.116;18.296;2022-10-29T15:15:26;21.50;65.20
51811;DHT22;52468;40.116;18.296;2022-10-29T15:18:17;21.40;65.60
51811;DHT22;52468;40.116;18.296;2022-10-29T15:20:48;21.30;66.00
51811;DHT22;52468;40.116;18.296;2022-10-29T15:23:40;21.40;65.80
51811;DHT22;52468;40.116;18.296;2022-10-29T15:26:16;21.20;66.20
51811;DHT22;52468;40.116;18.296;2022-10-29T15:28:50;21.10;67.00
51811;DHT22;52468;40.116;18.296;2022-10-29T15:34:34;20.90;68.40
51811;DHT22;52468;40.116;18.296;2022-10-29T15:42:30;20.60;71.10
51811;DHT22;52468;40.116;18.296;2022-10-29T15:45:12;20.50;71.70
51811;DHT22;52468;40.116;18.296;2022-10-29T15:47:43;20.50;72.00
51811;DHT22;52468;40.116;18.296;2022-10-29T15:50:14;20.40;72.40
51811;DHT22;52468;40.116;18.296;2022-10-29T15:52:50;20.30;73.30
51811;DHT22;52468;40.116;18.296;2022-10-29T15:55:22;20.30;73.80
51811;DHT22;52468;40.116;18.296;2022-10-29T15:58:03;20.20;74.20
51811;DHT22;52468;40.116;18.296;2022-10-29T16:00:32;20.20;74.70
51811;DHT22;52468;40.116;18.296;2022-10-29T16:03:13;20.10;75.20
51811;DHT22;52468;40.116;18.296;2022-10-29T16:05:43;20.00;75.70
51811;DHT22;52468;40.116;18.296;2022-10-29T16:08:33;20.00;76.50
51811;DHT22;52468;40.116;18.296;2022-10-29T16:11:03;19.90;77.00
51811;DHT22;52468;40.116;18.296;2022-10-29T16:13:35;19.80;77.50
51811;DHT22;52468;40.116;18.296;2022-10-29T16:16:03;19.80;77.60
51811;DHT22;52468;40.116;18.296;2022-10-29T16:18:31;19.70;77.80
51811;DHT22;52468;40.116;18.296;2022-10-29T16:21:00;19.70;77.90
51811;DHT22;52468;40.116;18.296;2022-10-29T16:23:28;19.70;77.80
51811;DHT22;52468;40.116;18.296;2022-10-29T16:25:56;19.60;78.00
51811;DHT22;52468;40.116;18.296;2022-10-29T16:28:24;19.60;78.40
51811;DHT22;52468;40.116;18.296;2022-10-29T16:30:54;19.50;78.80
51811;DHT22;52468;40.116;18.296;2022-10-29T16:33:25;19.50;78.60
51811;DHT22;52468;40.116;18.296;2022-10-29T16:35:53;19.50;78.90
51811;DHT22;52468;40.116;18.296;2022-10-29T16:38:21;19.50;79.10
51811;DHT22;52468;40.116;18.296;2022-10-29T16:40:50;19.50;79.00
51811;DHT22;52468;40.116;18.296;2022-10-29T16:43:17;19.40;79.10
51811;DHT22;52468;40.116;18.296;2022-10-29T16:45:45;19.40;79.40
51811;DHT22;52468;40.116;18.296;2022-10-29T16:48:13;19.30;79.50
51811;DHT22;52468;40.116;18.296;2022-10-29T16:50:41;19.30;79.50
51811;DHT22;52468;40.116;18.296;2022-10-29T16:53:09;19.20;79.70
51811;DHT22;52468;40.116;18.296;2022-10-29T16:55:38;19.30;79.30
51811;DHT22;52468;40.116;18.296;2022-10-29T16:58:15;19.20;79.60
51811;DHT22;52468;40.116;18.296;2022-10-29T17:00:43;19.10;79.90
51811;DHT22;52468;40.116;18.296;2022-10-29T17:03:13;19.10;79.90
51811;DHT22;52468;40.116;18.296;2022-10-29T17:05:43;19.10;80.00
51811;DHT22;52468;40.116;18.296;2022-10-29T17:08:11;19.00;80.30
51811;DHT22;52468;40.116;18.296;2022-10-29T17:10:39;19.00;80.40
51811;DHT22;52468;40.116;18.296;2022-10-29T17:13:07;19.00;80.30
51811;DHT22;52468;40.116;18.296;2022-10-29T17:15:38;19.00;80.70
51811;DHT22;52468;40.116;18.296;2022-10-29T17:18:07;18.90;80.60
51811;DHT22;52468;40.116;18.296;2022-10-29T17:20:35;18.90;80.80
51811;DHT22;52468;40.116;18.296;2022-10-29T17:23:03;18.90;80.80
51811;DHT22;52468;40.116;18.296;2022-10-29T17:25:31;18.80;81.00
51811;DHT22;52468;40.116;18.296;2022-10-29T17:28:01;18.80;81.10
51811;DHT22;52468;40.116;18.296;2022-10-29T17:30:30;18.80;81.40
51811;DHT22;52468;40.116;18.296;2022-10-29T17:32:58;18.80;81.50
51811;DHT22;52468;40.116;18.296;2022-10-29T17:35:25;18.80;81.40
51811;DHT22;52468;40.116;18.296;2022-10-29T17:37:53;18.70;81.70
51811;DHT22;52468;40.116;18.296;2022-10-29T17:40:21;18.70;81.60
51811;DHT22;52468;40.116;18.296;2022-10-29T17:42:50;18.70;81.80
51811;DHT22;52468;40.116;18.296;2022-10-29T17:45:19;18.70;82.10
51811;DHT22;52468;40.116;18.296;2022-10-29T17:47:53;18.60;82.30
51811;DHT22;52468;40.116;18.296;2022-10-29T17:50:23;18.60;82.30
51811;DHT22;52468;40.116;18.296;2022-10-29T17:52:52;18.60;82.40
51811;DHT22;52468;40.116;18.296;2022-10-29T17:55:20;18.60;82.60
51811;DHT22;52468;40.116;18.296;2022-10-29T17:57:48;18.60;82.40
51811;DHT22;52468;40.116;18.296;2022-10-29T18:00:16;18.60;82.60
51811;DHT22;52468;40.116;18.296;2022-10-29T18:02:46;18.50;82.50
51811;DHT22;52468;40.116;18.296;2022-10-29T18:05:15;18.50;82.60
51811;DHT22;52468;40.116;18.296;2022-10-29T18:07:43;18.50;82.80
51811;DHT22;52468;40.116;18.296;2022-10-29T18:10:11;18.50;82.80
51811;DHT22;52468;40.116;18.296;2022-10-29T18:12:39;18.40;82.90
51811;DHT22;52468;40.116;18.296;2022-10-29T18:15:07;18.50;82.90
51811;DHT22;52468;40.116;18.296;2022-10-29T18:17:35;18.40;82.90
51811;DHT22;52468;40.116;18.296;2022-10-29T18:20:03;18.40;82.90
51811;DHT22;52468;40.116;18.296;2022-10-29T18:22:31;18.40;83.00
51811;DHT22;52468;40.116;18.296;2022-10-29T18:24:59;18.30;83.20
51811;DHT22;52468;40.116;18.296;2022-10-29T18:27:27;18.30;83.00
51811;DHT22;52468;40.116;18.296;2022-10-29T18:29:55;18.30;83.30
51811;DHT22;52468;40.116;18.296;2022-10-29T18:32:22;18.30;83.30
51811;DHT22;52468;40.116;18.296;2022-10-29T18:34:51;18.20;83.50
51811;DHT22;52468;40.116;18.296;2022-10-29T18:37:18;18.20;83.40
51811;DHT22;52468;40.116;18.296;2022-10-29T18:39:46;18.20;83.60
51811;DHT22;52468;40.116;18.296;2022-10-29T18:42:14;18.20;83.60